sensor_id;sensor_type;location;lat;lon;timestamp;P1;durP1;ratioP1;P2;durP2;ratioP2
28766;SDS011;15921;52.034;20.650;2022-10-15T00:01:40;111.78;;;51.60;;
28766;SDS011;15921;52.034;20.650;2022-10-15T00:04:06;96.88;;;46.30;;
28766;SDS011;15921;52.034;20.650;2022-10-15T00:06:32;89.88;;;44.97;;
28766;SDS011;15921;52.034;20.650;2022-10-15T00:08:57;94.28;;;44.13;;
28766;SDS011;15921;52.034;20.650;2022-10-15T00:11:25;93.30;;;45.40;;
28766;SDS011;15921;52.034;20.650;2022-10-15T00:13:52;91.75;;;43.55;;
28766;SDS011;15921;52.034;20.650;2022-10-15T00:16:21;104.88;;;47.15;;
28766;SDS011;15921;52.034;20.650;2022-10-15T00:18:48;88.75;;;43.78;;
28766;SDS011;15921;52.034;20.650;2022-10-15T00:21:16;94.78;;;45.55;;
28766;SDS011;15921;52.034;20.650;2022-10-15T00:23:43;86.43;;;44.20;;
28766;SDS011;15921;52.034;20.650;2022-10-15T00:26:11;107.22;;;51.13;;
28766;SDS011;15921;52.034;20.650;2022-10-15T00:28:39;99.00;;;45.97;;
28766;SDS011;15921;52.034;20.650;2022-10-15T00:31:07;105.03;;;47.42;;
28766;SDS011;15921;52.034;20.650;2022-10-15T00:33:34;96.75;;;44.53;;
28766;SDS011;15921;52.034;20.650;2022-10-15T00:36:23;103.18;;;48.17;;
28766;SDS011;15921;52.034;20.650;2022-10-15T00:38:48;95.50;;;45.67;;
28766;SDS011;15921;52.034;20.650;2022-10-15T00:41:17;97.15;;;45.58;;
28766;SDS011;15921;52.034;20.650;2022-10-15T00:43:58;101.60;;;47.72;;
28766;SDS011;15921;52.034;20.650;2022-10-15T00:46:28;111.32;;;49.70;;
28766;SDS011;15921;52.034;20.650;2022-10-15T00:49:03;113.82;;;51.10;;
28766;SDS011;15921;52.034;20.650;2022-10-15T00:51:38;125.57;;;53.00;;
28766;SDS011;15921;52.034;20.650;2022-10-15T00:54:07;125.78;;;55.00;;
28766;SDS011;15921;52.034;20.650;2022-10-15T00:56:33;142.32;;;59.28;;
28766;SDS011;15921;52.034;20.650;2022-10-15T00:59:02;132.32;;;55.70;;
28766;SDS011;15921;52.034;20.650;2022-10-15T01:01:30;130.55;;;53.65;;
28766;SDS011;15921;52.034;20.650;2022-10-15T01:03:55;117.97;;;50.95;;
28766;SDS011;15921;52.034;20.650;2022-10-15T01:06:22;145.77;;;56.83;;
28766;SDS011;15921;52.034;20.650;2022-10-15T01:08:49;130.30;;;56.72;;
28766;SDS011;15921;52.034;20.650;2022-10-15T01:16:32;120.95;;;53.15;;
28766;SDS011;15921;52.034;20.650;2022-10-15T01:22:59;126.15;;;56.80;;
28766;SDS011;15921;52.034;20.650;2022-10-15T01:27:44;135.27;;;55.30;;
28766;SDS011;15921;52.034;20.650;2022-10-15T01:30:29;133.30;;;56.17;;
28766;SDS011;15921;52.034;20.650;2022-10-15T01:44:10;122.03;;;51.92;;
28766;SDS011;15921;52.034;20.650;2022-10-15T01:46:46;117.05;;;51.60;;
28766;SDS011;15921;52.034;20.650;2022-10-15T01:49:20;119.38;;;50.40;;
28766;SDS011;15921;52.034;20.650;2022-10-15T01:51:50;110.13;;;49.47;;
28766;SDS011;15921;52.034;20.650;2022-10-15T01:54:19;111.10;;;49.58;;
28766;SDS011;15921;52.034;20.650;2022-10-15T01:56:49;110.07;;;48.45;;
28766;SDS011;15921;52.034;20.650;2022-10-15T01:59:23;100.82;;;46.80;;
28766;SDS011;15921;52.034;20.650;2022-10-15T02:01:53;105.43;;;48.00;;
28766;SDS011;15921;52.034;20.650;2022-10-15T02:04:20;109.47;;;48.90;;
28766;SDS011;15921;52.034;20.650;2022-10-15T02:06:56;96.80;;;46.53;;
28766;SDS011;15921;52.034;20.650;2022-10-15T02:15:33;109.35;;;47.70;;
28766;SDS011;15921;52.034;20.650;2022-10-15T02:23:21;124.07;;;52.30;;
28766;SDS011;15921;52.034;20.650;2022-10-15T02:25:51;131.95;;;54.60;;
28766;SDS011;15921;52.034;20.650;2022-10-15T02:28:19;125.07;;;52.35;;
28766;SDS011;15921;52.034;20.650;2022-10-15T02:30:47;121.22;;;51.97;;
28766;SDS011;15921;52.034;20.650;2022-10-15T02:33:17;144.55;;;56.97;;
28766;SDS011;15921;52.034;20.650;2022-10-15T02:35:44;141.10;;;57.67;;
28766;SDS011;15921;52.034;20.650;2022-10-15T02:38:13;112.35;;;50.00;;
28766;SDS011;15921;52.034;20.650;2022-10-15T02:40:42;123.65;;;50.88;;
28766;SDS011;15921;52.034;20.650;2022-10-15T02:43:10;139.75;;;55.53;;
28766;SDS011;15921;52.034;20.650;2022-10-15T02:45:38;145.68;;;55.80;;
28766;SDS011;15921;52.034;20.650;2022-10-15T02:48:04;182.13;;;61.63;;
28766;SDS011;15921;52.034;20.650;2022-10-15T02:50:30;167.43;;;59.85;;
28766;SDS011;15921;52.034;20.650;2022-10-15T02:52:56;164.07;;;61.10;;
28766;SDS011;15921;52.034;20.650;2022-10-15T02:55:21;146.57;;;56.97;;
28766;SDS011;15921;52.034;20.650;2022-10-15T02:57:47;153.18;;;59.80;;
28766;SDS011;15921;52.034;20.650;2022-10-15T03:00:13;161.90;;;61.28;;
28766;SDS011;15921;52.034;20.650;2022-10-15T03:02:39;125.68;;;55.35;;
28766;SDS011;15921;52.034;20.650;2022-10-15T03:05:05;139.70;;;57.95;;
28766;SDS011;15921;52.034;20.650;2022-10-15T03:07:31;148.50;;;58.55;;
28766;SDS011;15921;52.034;20.650;2022-10-15T03:09:56;155.25;;;58.92;;
28766;SDS011;15921;52.034;20.650;2022-10-15T03:12:22;151.75;;;59.47;;
28766;SDS011;15921;52.034;20.650;2022-10-15T03:14:50;158.43;;;60.10;;
28766;SDS011;15921;52.034;20.650;2022-10-15T03:17:16;184.95;;;62.10;;
28766;SDS011;15921;52.034;20.650;2022-10-15T03:19:42;146.02;;;58.63;;
28766;SDS011;15921;52.034;20.650;2022-10-15T03:22:08;161.13;;;60.65;;
28766;SDS011;15921;52.034;20.650;2022-10-15T03:24:33;143.35;;;55.90;;
28766;SDS011;15921;52.034;20.650;2022-10-15T03:26:59;138.68;;;55.90;;
28766;SDS011;15921;52.034;20.650;2022-10-15T03:29:25;145.10;;;57.03;;
28766;SDS011;15921;52.034;20.650;2022-10-15T03:31:50;131.40;;;56.42;;
28766;SDS011;15921;52.034;20.650;2022-10-15T03:34:16;136.80;;;56.92;;
28766;SDS011;15921;52.034;20.650;2022-10-15T03:36:42;122.90;;;53.53;;
28766;SDS011;15921;52.034;20.650;2022-10-15T03:39:09;152.32;;;56.65;;
28766;SDS011;15921;52.034;20.650;2022-10-15T03:41:36;121.60;;;53.40;;
28766;SDS011;15921;52.034;20.650;2022-10-15T03:44:03;142.23;;;54.67;;
28766;SDS011;15921;52.034;20.650;2022-10-15T03:46:30;125.95;;;53.50;;
28766;SDS011;15921;52.034;20.650;2022-10-15T03:48:56;121.53;;;53.92;;
28766;SDS011;15921;52.034;20.650;2022-10-15T03:51:22;135.52;;;53.90;;
28766;SDS011;15921;52.034;20.650;2022-10-15T03:53:48;139.68;;;54.60;;
28766;SDS011;15921;52.034;20.650;2022-10-15T03:56:13;113.63;;;49.20;;
28766;SDS011;15921;52.034;20.650;2022-10-15T03:58:39;136.77;;;53.28;;
28766;SDS011;15921;52.034;20.650;2022-10-15T04:01:12;111.97;;;47.97;;
28766;SDS011;15921;52.034;20.650;2022-10-15T04:03:40;122.38;;;50.03;;
28766;SDS011;15921;52.034;20.650;2022-10-15T04:06:06;110.28;;;48.95;;
28766;SDS011;15921;52.034;20.650;2022-10-15T04:08:32;113.80;;;51.08;;
28766;SDS011;15921;52.034;20.650;2022-10-15T04:10:58;96.20;;;44.90;;
28766;SDS011;15921;52.034;20.650;2022-10-15T04:13:24;109.57;;;49.17;;
28766;SDS011;15921;52.034;20.650;2022-10-15T04:15:51;112.65;;;49.47;;
28766;SDS011;15921;52.034;20.650;2022-10-15T04:18:16;104.18;;;48.08;;
28766;SDS011;15921;52.034;20.650;2022-10-15T04:20:45;96.97;;;45.50;;
28766;SDS011;15921;52.034;20.650;2022-10-15T04:23:11;111.75;;;47.28;;
28766;SDS011;15921;52.034;20.650;2022-10-15T04:25:37;104.78;;;47.65;;
28766;SDS011;15921;52.034;20.650;2022-10-15T04:28:04;111.45;;;47.85;;
28766;SDS011;15921;52.034;20.650;2022-10-15T04:30:30;110.25;;;47.13;;
28766;SDS011;15921;52.034;20.650;2022-10-15T04:32:55;98.80;;;44.92;;
28766;SDS011;15921;52.034;20.650;2022-10-15T04:35:21;100.68;;;47.30;;
28766;SDS011;15921;52.034;20.650;2022-10-15T04:37:47;90.25;;;43.97;;
28766;SDS011;15921;52.034;20.650;2022-10-15T04:40:13;96.22;;;46.50;;
28766;SDS011;15921;52.034;20.650;2022-10-15T04:42:39;100.53;;;47.45;;
28766;SDS011;15921;52.034;20.650;2022-10-15T04:45:05;99.70;;;45.53;;
28766;SDS011;15921;52.034;20.650;2022-10-15T04:47:32;97.53;;;44.28;;
28766;SDS011;15921;52.034;20.650;2022-10-15T04:49:58;101.10;;;46.30;;
28766;SDS011;15921;52.034;20.650;2022-10-15T04:52:24;96.82;;;44.28;;
28766;SDS011;15921;52.034;20.650;2022-10-15T04:54:50;83.65;;;40.25;;
28766;SDS011;15921;52.034;20.650;2022-10-15T04:57:15;105.13;;;46.85;;
28766;SDS011;15921;52.034;20.650;2022-10-15T04:59:41;101.15;;;46.35;;
28766;SDS011;15921;52.034;20.650;2022-10-15T05:02:08;96.57;;;46.08;;
28766;SDS011;15921;52.034;20.650;2022-10-15T05:04:34;93.20;;;42.83;;
28766;SDS011;15921;52.034;20.650;2022-10-15T05:07:00;93.07;;;43.45;;
28766;SDS011;15921;52.034;20.650;2022-10-15T05:09:26;96.57;;;45.70;;
28766;SDS011;15921;52.034;20.650;2022-10-15T05:11:51;98.35;;;43.72;;
28766;SDS011;15921;52.034;20.650;2022-10-15T05:14:19;91.85;;;42.90;;
28766;SDS011;15921;52.034;20.650;2022-10-15T05:16:45;92.50;;;43.30;;
28766;SDS011;15921;52.034;20.650;2022-10-15T05:19:11;104.30;;;45.30;;
28766;SDS011;15921;52.034;20.650;2022-10-15T05:21:37;92.88;;;43.65;;
28766;SDS011;15921;52.034;20.650;2022-10-15T05:24:02;87.40;;;44.38;;
28766;SDS011;15921;52.034;20.650;2022-10-15T05:26:29;93.03;;;43.15;;
28766;SDS011;15921;52.034;20.650;2022-10-15T05:28:56;83.85;;;40.78;;
28766;SDS011;15921;52.034;20.650;2022-10-15T05:31:24;89.03;;;41.75;;
28766;SDS011;15921;52.034;20.650;2022-10-15T05:33:52;85.00;;;41.25;;
28766;SDS011;15921;52.034;20.650;2022-10-15T05:36:19;77.18;;;39.63;;
28766;SDS011;15921;52.034;20.650;2022-10-15T05:38:49;78.13;;;38.75;;
28766;SDS011;15921;52.034;20.650;2022-10-15T05:41:16;85.10;;;39.75;;
28766;SDS011;15921;52.034;20.650;2022-10-15T05:43:44;76.13;;;38.33;;
28766;SDS011;15921;52.034;20.650;2022-10-15T05:46:11;73.15;;;35.45;;
28766;SDS011;15921;52.034;20.650;2022-10-15T05:48:37;75.32;;;38.92;;
28766;SDS011;15921;52.034;20.650;2022-10-15T05:51:04;73.60;;;37.25;;
28766;SDS011;15921;52.034;20.650;2022-10-15T05:53:31;75.72;;;36.28;;
28766;SDS011;15921;52.034;20.650;2022-10-15T05:55:57;81.57;;;37.63;;
28766;SDS011;15921;52.034;20.650;2022-10-15T05:58:24;65.50;;;34.03;;
28766;SDS011;15921;52.034;20.650;2022-10-15T06:00:54;79.22;;;36.30;;
28766;SDS011;15921;52.034;20.650;2022-10-15T06:03:21;77.05;;;37.65;;
28766;SDS011;15921;52.034;20.650;2022-10-15T06:05:47;71.18;;;36.47;;
28766;SDS011;15921;52.034;20.650;2022-10-15T06:08:13;68.95;;;33.28;;
28766;SDS011;15921;52.034;20.650;2022-10-15T06:10:39;75.57;;;37.05;;
28766;SDS011;15921;52.034;20.650;2022-10-15T06:13:05;67.25;;;33.65;;
28766;SDS011;15921;52.034;20.650;2022-10-15T06:15:31;74.35;;;37.97;;
28766;SDS011;15921;52.034;20.650;2022-10-15T06:17:57;75.35;;;38.70;;
28766;SDS011;15921;52.034;20.650;2022-10-15T06:20:23;64.50;;;33.78;;
28766;SDS011;15921;52.034;20.650;2022-10-15T06:22:49;73.82;;;36.38;;
28766;SDS011;15921;52.034;20.650;2022-10-15T06:25:15;66.78;;;36.17;;
28766;SDS011;15921;52.034;20.650;2022-10-15T06:27:41;69.95;;;36.30;;
28766;SDS011;15921;52.034;20.650;2022-10-15T06:30:06;65.55;;;34.63;;
28766;SDS011;15921;52.034;20.650;2022-10-15T06:32:33;69.90;;;36.00;;
28766;SDS011;15921;52.034;20.650;2022-10-15T06:34:59;68.07;;;35.42;;
28766;SDS011;15921;52.034;20.650;2022-10-15T06:37:24;69.60;;;35.97;;
28766;SDS011;15921;52.034;20.650;2022-10-15T06:39:52;60.22;;;32.55;;
28766;SDS011;15921;52.034;20.650;2022-10-15T06:42:18;72.95;;;35.88;;
28766;SDS011;15921;52.034;20.650;2022-10-15T06:44:44;64.72;;;34.08;;
28766;SDS011;15921;52.034;20.650;2022-10-15T06:47:09;62.42;;;33.03;;
28766;SDS011;15921;52.034;20.650;2022-10-15T06:49:35;61.17;;;33.17;;
28766;SDS011;15921;52.034;20.650;2022-10-15T06:52:01;54.10;;;30.85;;
28766;SDS011;15921;52.034;20.650;2022-10-15T06:54:26;60.45;;;31.15;;
28766;SDS011;15921;52.034;20.650;2022-10-15T06:56:52;56.92;;;32.30;;
28766;SDS011;15921;52.034;20.650;2022-10-15T06:59:18;56.38;;;30.35;;
28766;SDS011;15921;52.034;20.650;2022-10-15T07:01:45;54.10;;;30.00;;
28766;SDS011;15921;52.034;20.650;2022-10-15T07:04:11;53.03;;;29.73;;
28766;SDS011;15921;52.034;20.650;2022-10-15T07:06:37;61.28;;;31.67;;
28766;SDS011;15921;52.034;20.650;2022-10-15T07:09:03;60.25;;;32.75;;
28766;SDS011;15921;52.034;20.650;2022-10-15T07:11:29;54.95;;;30.85;;
28766;SDS011;15921;52.034;20.650;2022-10-15T07:13:55;54.35;;;30.15;;
28766;SDS011;15921;52.034;20.650;2022-10-15T07:16:22;52.70;;;30.75;;
28766;SDS011;15921;52.034;20.650;2022-10-15T07:18:48;55.53;;;30.52;;
28766;SDS011;15921;52.034;20.650;2022-10-15T07:21:14;51.83;;;28.95;;
28766;SDS011;15921;52.034;20.650;2022-10-15T07:23:39;54.00;;;29.95;;
28766;SDS011;15921;52.034;20.650;2022-10-15T07:26:05;50.45;;;28.77;;
28766;SDS011;15921;52.034;20.650;2022-10-15T07:28:31;48.22;;;28.67;;
28766;SDS011;15921;52.034;20.650;2022-10-15T07:31:04;47.00;;;26.92;;
28766;SDS011;15921;52.034;20.650;2022-10-15T07:33:31;56.53;;;28.92;;
28766;SDS011;15921;52.034;20.650;2022-10-15T07:36:02;47.63;;;28.50;;
28766;SDS011;15921;52.034;20.650;2022-10-15T07:38:35;46.40;;;26.95;;
28766;SDS011;15921;52.034;20.650;2022-10-15T07:41:01;50.80;;;28.02;;
28766;SDS011;15921;52.034;20.650;2022-10-15T07:43:28;43.60;;;26.27;;
28766;SDS011;15921;52.034;20.650;2022-10-15T07:45:54;46.13;;;26.50;;
28766;SDS011;15921;52.034;20.650;2022-10-15T07:48:21;42.90;;;26.30;;
28766;SDS011;15921;52.034;20.650;2022-10-15T07:50:52;45.65;;;26.48;;
28766;SDS011;15921;52.034;20.650;2022-10-15T07:53:22;43.90;;;25.50;;
28766;SDS011;15921;52.034;20.650;2022-10-15T07:55:47;45.58;;;26.95;;
28766;SDS011;15921;52.034;20.650;2022-10-15T07:58:14;43.42;;;25.35;;
28766;SDS011;15921;52.034;20.650;2022-10-15T08:00:40;45.20;;;26.90;;
28766;SDS011;15921;52.034;20.650;2022-10-15T08:03:05;41.40;;;26.55;;
28766;SDS011;15921;52.034;20.650;2022-10-15T08:05:32;43.53;;;25.67;;
28766;SDS011;15921;52.034;20.650;2022-10-15T08:07:58;45.42;;;26.40;;
28766;SDS011;15921;52.034;20.650;2022-10-15T08:10:24;44.00;;;24.48;;
28766;SDS011;15921;52.034;20.650;2022-10-15T08:12:50;40.63;;;25.15;;
28766;SDS011;15921;52.034;20.650;2022-10-15T08:15:16;37.25;;;24.52;;
28766;SDS011;15921;52.034;20.650;2022-10-15T08:17:42;41.63;;;24.50;;
28766;SDS011;15921;52.034;20.650;2022-10-15T08:20:11;41.80;;;25.27;;
28766;SDS011;15921;52.034;20.650;2022-10-15T08:22:37;39.90;;;24.60;;
28766;SDS011;15921;52.034;20.650;2022-10-15T08:25:02;43.33;;;24.08;;
28766;SDS011;15921;52.034;20.650;2022-10-15T08:27:28;36.08;;;21.85;;
28766;SDS011;15921;52.034;20.650;2022-10-15T08:29:55;39.00;;;23.90;;
28766;SDS011;15921;52.034;20.650;2022-10-15T08:32:20;38.90;;;23.15;;
28766;SDS011;15921;52.034;20.650;2022-10-15T08:34:46;40.42;;;23.73;;
28766;SDS011;15921;52.034;20.650;2022-10-15T08:37:12;38.72;;;22.63;;
28766;SDS011;15921;52.034;20.650;2022-10-15T08:39:37;38.30;;;22.85;;
28766;SDS011;15921;52.034;20.650;2022-10-15T08:42:04;35.65;;;21.83;;
28766;SDS011;15921;52.034;20.650;2022-10-15T08:44:40;36.58;;;21.88;;
28766;SDS011;15921;52.034;20.650;2022-10-15T08:49:51;36.03;;;22.85;;
28766;SDS011;15921;52.034;20.650;2022-10-15T08:53:04;32.23;;;20.23;;
28766;SDS011;15921;52.034;20.650;2022-10-15T08:55:05;34.35;;;20.77;;
28766;SDS011;15921;52.034;20.650;2022-10-15T08:57:56;32.55;;;21.35;;
28766;SDS011;15921;52.034;20.650;2022-10-15T09:00:23;35.05;;;21.58;;
28766;SDS011;15921;52.034;20.650;2022-10-15T09:03:10;35.55;;;19.63;;
28766;SDS011;15921;52.034;20.650;2022-10-15T09:11:15;31.85;;;19.98;;
28766;SDS011;15921;52.034;20.650;2022-10-15T09:14:06;30.88;;;20.20;;
28766;SDS011;15921;52.034;20.650;2022-10-15T09:16:37;33.60;;;19.00;;
28766;SDS011;15921;52.034;20.650;2022-10-15T09:19:11;31.95;;;19.52;;
28766;SDS011;15921;52.034;20.650;2022-10-15T09:21:40;32.25;;;20.50;;
28766;SDS011;15921;52.034;20.650;2022-10-15T09:24:09;30.92;;;19.25;;
28766;SDS011;15921;52.034;20.650;2022-10-15T09:26:50;31.08;;;18.88;;
28766;SDS011;15921;52.034;20.650;2022-10-15T09:34:42;28.80;;;18.17;;
28766;SDS011;15921;52.034;20.650;2022-10-15T09:37:16;27.70;;;18.23;;
28766;SDS011;15921;52.034;20.650;2022-10-15T09:42:52;29.85;;;18.92;;
28766;SDS011;15921;52.034;20.650;2022-10-15T09:45:21;32.17;;;20.23;;
28766;SDS011;15921;52.034;20.650;2022-10-15T09:47:50;28.70;;;18.55;;
28766;SDS011;15921;52.034;20.650;2022-10-15T09:50:17;27.63;;;18.73;;
28766;SDS011;15921;52.034;20.650;2022-10-15T09:55:59;33.22;;;20.20;;
28766;SDS011;15921;52.034;20.650;2022-10-15T09:58:48;29.67;;;17.50;;
28766;SDS011;15921;52.034;20.650;2022-10-15T10:01:21;34.22;;;20.63;;
28766;SDS011;15921;52.034;20.650;2022-10-15T10:03:52;31.77;;;19.17;;
28766;SDS011;15921;52.034;20.650;2022-10-15T10:06:42;29.83;;;19.23;;
28766;SDS011;15921;52.034;20.650;2022-10-15T10:09:11;30.08;;;17.95;;
28766;SDS011;15921;52.034;20.650;2022-10-15T10:11:49;27.63;;;18.67;;
28766;SDS011;15921;52.034;20.650;2022-10-15T10:14:30;27.38;;;18.30;;
28766;SDS011;15921;52.034;20.650;2022-10-15T10:17:03;28.25;;;16.95;;
28766;SDS011;15921;52.034;20.650;2022-10-15T10:19:31;28.85;;;17.30;;
28766;SDS011;15921;52.034;20.650;2022-10-15T10:22:04;22.75;;;16.42;;
28766;SDS011;15921;52.034;20.650;2022-10-15T10:24:37;26.35;;;17.30;;
28766;SDS011;15921;52.034;20.650;2022-10-15T10:27:02;27.25;;;17.95;;
28766;SDS011;15921;52.034;20.650;2022-10-15T10:29:38;25.70;;;17.02;;
28766;SDS011;15921;52.034;20.650;2022-10-15T10:32:11;30.60;;;17.52;;
28766;SDS011;15921;52.034;20.650;2022-10-15T10:34:47;35.33;;;17.83;;
28766;SDS011;15921;52.034;20.650;2022-10-15T10:37:13;28.95;;;17.40;;
28766;SDS011;15921;52.034;20.650;2022-10-15T10:39:39;28.98;;;18.92;;
28766;SDS011;15921;52.034;20.650;2022-10-15T10:42:22;31.30;;;17.17;;
28766;SDS011;15921;52.034;20.650;2022-10-15T10:47:44;29.65;;;17.20;;
28766;SDS011;15921;52.034;20.650;2022-10-15T10:50:31;26.35;;;18.33;;
28766;SDS011;15921;52.034;20.650;2022-10-15T10:53:15;26.52;;;16.98;;
28766;SDS011;15921;52.034;20.650;2022-10-15T10:55:42;26.00;;;17.83;;
28766;SDS011;15921;52.034;20.650;2022-10-15T10:58:11;24.35;;;16.45;;
28766;SDS011;15921;52.034;20.650;2022-10-15T11:00:46;27.20;;;17.27;;
28766;SDS011;15921;52.034;20.650;2022-10-15T11:03:35;28.27;;;17.30;;
28766;SDS011;15921;52.034;20.650;2022-10-15T11:19:00;31.38;;;16.23;;
28766;SDS011;15921;52.034;20.650;2022-10-15T11:27:35;23.35;;;16.08;;
28766;SDS011;15921;52.034;20.650;2022-10-15T11:30:33;24.05;;;15.15;;
28766;SDS011;15921;52.034;20.650;2022-10-15T11:33:34;23.83;;;16.60;;
28766;SDS011;15921;52.034;20.650;2022-10-15T11:42:13;25.75;;;16.52;;
28766;SDS011;15921;52.034;20.650;2022-10-15T11:50:30;27.55;;;17.20;;
28766;SDS011;15921;52.034;20.650;2022-10-15T11:53:27;25.88;;;16.60;;
28766;SDS011;15921;52.034;20.650;2022-10-15T11:58:42;22.50;;;16.20;;
28766;SDS011;15921;52.034;20.650;2022-10-15T12:07:10;31.65;;;17.88;;
28766;SDS011;15921;52.034;20.650;2022-10-15T12:09:45;26.55;;;17.35;;
28766;SDS011;15921;52.034;20.650;2022-10-15T12:12:18;29.10;;;17.85;;
28766;SDS011;15921;52.034;20.650;2022-10-15T12:17:49;32.50;;;18.70;;
28766;SDS011;15921;52.034;20.650;2022-10-15T12:20:20;26.98;;;17.70;;
28766;SDS011;15921;52.034;20.650;2022-10-15T12:28:11;30.50;;;18.23;;
28766;SDS011;15921;52.034;20.650;2022-10-15T12:30:37;26.33;;;17.85;;
28766;SDS011;15921;52.034;20.650;2022-10-15T12:35:56;34.03;;;18.23;;
28766;SDS011;15921;52.034;20.650;2022-10-15T12:38:25;28.35;;;18.67;;
28766;SDS011;15921;52.034;20.650;2022-10-15T12:40:58;33.63;;;18.08;;
28766;SDS011;15921;52.034;20.650;2022-10-15T12:43:26;26.20;;;17.63;;
28766;SDS011;15921;52.034;20.650;2022-10-15T12:45:56;29.63;;;18.55;;
28766;SDS011;15921;52.034;20.650;2022-10-15T12:48:34;29.25;;;17.90;;
28766;SDS011;15921;52.034;20.650;2022-10-15T12:53:46;28.08;;;18.55;;
28766;SDS011;15921;52.034;20.650;2022-10-15T12:58:49;26.98;;;18.33;;
28766;SDS011;15921;52.034;20.650;2022-10-15T13:08:49;27.33;;;18.65;;
28766;SDS011;15921;52.034;20.650;2022-10-15T13:13:52;33.92;;;17.42;;
28766;SDS011;15921;52.034;20.650;2022-10-15T13:16:23;26.73;;;17.50;;
28766;SDS011;15921;52.034;20.650;2022-10-15T13:18:50;26.58;;;16.92;;
28766;SDS011;15921;52.034;20.650;2022-10-15T13:21:18;26.05;;;18.42;;
28766;SDS011;15921;52.034;20.650;2022-10-15T13:23:48;27.02;;;17.80;;
28766;SDS011;15921;52.034;20.650;2022-10-15T13:26:19;26.52;;;16.90;;
28766;SDS011;15921;52.034;20.650;2022-10-15T13:28:45;28.30;;;18.40;;
28766;SDS011;15921;52.034;20.650;2022-10-15T13:34:04;25.35;;;17.02;;
28766;SDS011;15921;52.034;20.650;2022-10-15T13:36:40;26.60;;;17.00;;
28766;SDS011;15921;52.034;20.650;2022-10-15T13:39:28;30.70;;;17.35;;
28766;SDS011;15921;52.034;20.650;2022-10-15T13:44:39;24.25;;;16.75;;
28766;SDS011;15921;52.034;20.650;2022-10-15T13:47:25;29.48;;;18.27;;
28766;SDS011;15921;52.034;20.650;2022-10-15T13:50:11;30.42;;;17.65;;
28766;SDS011;15921;52.034;20.650;2022-10-15T13:55:48;31.13;;;16.75;;
28766;SDS011;15921;52.034;20.650;2022-10-15T13:58:19;31.95;;;17.55;;
28766;SDS011;15921;52.034;20.650;2022-10-15T14:00:59;24.38;;;15.70;;
28766;SDS011;15921;52.034;20.650;2022-10-15T14:03:31;23.92;;;15.75;;
28766;SDS011;15921;52.034;20.650;2022-10-15T14:08:55;27.00;;;17.67;;
28766;SDS011;15921;52.034;20.650;2022-10-15T14:11:22;24.80;;;16.23;;
28766;SDS011;15921;52.034;20.650;2022-10-15T14:13:50;28.95;;;17.15;;
28766;SDS011;15921;52.034;20.650;2022-10-15T14:19:06;23.95;;;16.25;;
28766;SDS011;15921;52.034;20.650;2022-10-15T14:21:35;28.02;;;16.70;;
28766;SDS011;15921;52.034;20.650;2022-10-15T14:26:38;23.80;;;16.20;;
28766;SDS011;15921;52.034;20.650;2022-10-15T14:29:04;31.83;;;16.20;;
28766;SDS011;15921;52.034;20.650;2022-10-15T14:34:00;33.40;;;18.67;;
28766;SDS011;15921;52.034;20.650;2022-10-15T14:36:28;26.17;;;17.20;;
28766;SDS011;15921;52.034;20.650;2022-10-15T14:38:56;24.08;;;16.65;;
28766;SDS011;15921;52.034;20.650;2022-10-15T14:42:02;29.88;;;16.40;;
28766;SDS011;15921;52.034;20.650;2022-10-15T14:44:49;26.05;;;17.17;;
28766;SDS011;15921;52.034;20.650;2022-10-15T14:47:19;26.55;;;17.33;;
28766;SDS011;15921;52.034;20.650;2022-10-15T14:49:45;22.98;;;16.30;;
28766;SDS011;15921;52.034;20.650;2022-10-15T14:52:14;26.95;;;17.35;;
28766;SDS011;15921;52.034;20.650;2022-10-15T14:54:45;26.08;;;17.30;;
28766;SDS011;15921;52.034;20.650;2022-10-15T14:57:22;25.50;;;18.52;;
28766;SDS011;15921;52.034;20.650;2022-10-15T14:59:51;29.00;;;17.42;;
28766;SDS011;15921;52.034;20.650;2022-10-15T15:02:21;26.83;;;17.80;;
28766;SDS011;15921;52.034;20.650;2022-10-15T15:04:52;27.92;;;18.77;;
28766;SDS011;15921;52.034;20.650;2022-10-15T15:07:28;29.48;;;19.00;;
28766;SDS011;15921;52.034;20.650;2022-10-15T15:09:54;33.50;;;21.40;;
28766;SDS011;15921;52.034;20.650;2022-10-15T15:12:21;30.65;;;19.85;;
28766;SDS011;15921;52.034;20.650;2022-10-15T15:14:48;30.55;;;20.20;;
28766;SDS011;15921;52.034;20.650;2022-10-15T15:17:15;33.50;;;20.35;;
28766;SDS011;15921;52.034;20.650;2022-10-15T15:19:45;31.88;;;20.17;;
28766;SDS011;15921;52.034;20.650;2022-10-15T15:22:14;31.35;;;19.33;;
28766;SDS011;15921;52.034;20.650;2022-10-15T15:24:42;32.92;;;19.38;;
28766;SDS011;15921;52.034;20.650;2022-10-15T15:27:22;32.35;;;19.98;;
28766;SDS011;15921;52.034;20.650;2022-10-15T15:29:49;37.38;;;20.27;;
28766;SDS011;15921;52.034;20.650;2022-10-15T15:32:15;29.63;;;18.85;;
28766;SDS011;15921;52.034;20.650;2022-10-15T15:34:41;35.15;;;19.60;;
28766;SDS011;15921;52.034;20.650;2022-10-15T15:37:17;27.65;;;18.65;;
28766;SDS011;15921;52.034;20.650;2022-10-15T15:39:45;35.63;;;19.70;;
28766;SDS011;15921;52.034;20.650;2022-10-15T15:42:14;31.33;;;19.65;;
28766;SDS011;15921;52.034;20.650;2022-10-15T15:44:42;29.50;;;17.95;;
28766;SDS011;15921;52.034;20.650;2022-10-15T15:47:08;27.58;;;18.92;;
28766;SDS011;15921;52.034;20.650;2022-10-15T15:49:34;28.48;;;18.67;;
28766;SDS011;15921;52.034;20.650;2022-10-15T15:52:00;34.95;;;19.98;;
28766;SDS011;15921;52.034;20.650;2022-10-15T15:54:27;34.63;;;20.38;;
28766;SDS011;15921;52.034;20.650;2022-10-15T15:56:53;35.25;;;19.67;;
28766;SDS011;15921;52.034;20.650;2022-10-15T15:59:19;29.17;;;19.48;;
28766;SDS011;15921;52.034;20.650;2022-10-15T16:01:45;34.25;;;20.02;;
28766;SDS011;15921;52.034;20.650;2022-10-15T16:04:11;35.10;;;20.95;;
28766;SDS011;15921;52.034;20.650;2022-10-15T16:06:37;33.47;;;21.15;;
28766;SDS011;15921;52.034;20.650;2022-10-15T16:09:04;33.63;;;19.52;;
28766;SDS011;15921;52.034;20.650;2022-10-15T16:11:30;37.42;;;21.58;;
28766;SDS011;15921;52.034;20.650;2022-10-15T16:13:57;28.15;;;19.98;;
28766;SDS011;15921;52.034;20.650;2022-10-15T16:16:23;32.20;;;20.25;;
28766;SDS011;15921;52.034;20.650;2022-10-15T16:18:50;30.98;;;19.63;;
28766;SDS011;15921;52.034;20.650;2022-10-15T16:21:22;31.15;;;20.30;;
28766;SDS011;15921;52.034;20.650;2022-10-15T16:23:52;35.08;;;20.88;;
28766;SDS011;15921;52.034;20.650;2022-10-15T16:26:17;36.20;;;20.30;;
28766;SDS011;15921;52.034;20.650;2022-10-15T16:28:43;33.20;;;20.50;;
28766;SDS011;15921;52.034;20.650;2022-10-15T16:31:16;33.17;;;20.92;;
28766;SDS011;15921;52.034;20.650;2022-10-15T16:36:07;33.65;;;22.33;;
28766;SDS011;15921;52.034;20.650;2022-10-15T16:38:33;30.63;;;21.27;;
28766;SDS011;15921;52.034;20.650;2022-10-15T16:40:59;34.35;;;21.90;;
28766;SDS011;15921;52.034;20.650;2022-10-15T16:43:25;34.17;;;21.33;;